Maxville, Canada
Current Conditions -  °F | °C
As of 2:53 AM on Sunday 23 Nov 2014 (Local Time) from KMSS Reporting Station
Light Rain Light Rain  
Wind Chill: 35°   Ceiling: 500
Heat Index: 41°   Visibility: 5mi
Dew Point: 41°   Wind: 9mph
Humidity: 100%   Direction: 240°WSW
Pressure: 29.96"   Gusts: NA
Location:  45.28°N, 74.85°W
Report Text: KMSS 230753Z AUTO 24008KT 5SM -RA BR OVC005 05/05 A2996 RMK AO2 SLP148 P0002 T00500050
Loading
Personal Weather Stations






























Interactive Weather Map New forecast layout! Learn more

10-Day Weather Forecast

Advertisements
Track Severe Weather on mobile